Decoded Metar for LFLB (CHAMBERY in FRANCE) (IATA:CMF) | Meteo·Mobile Aviation Weather
aviador You're here:

LFLB Decoded Metar

CHAMBERY in FRANCE
Report Time2020-02-19 03:00:00
UTC Time2020-02-19 03:19:04
Flight Rules vfr VFR
Wind330° at 03 kt
W.Decomp.*RWY 36: 2.6 kt HW 1.5 kt LCW
Visibility9999 m
Phenomena:N/A
Clouds:Broken 054 Hf
Overcast 072 Hf
Expected CloudBase > 800 ft AGL from Temp-Dew spread
Ceiling5,400 ft
Temp02°C (ISA -11)
Dew Point00°C (87% RH)
AAT-1.1°C
QNH1029 hPa
Density Alt-1,063 ft
Elevation784 ft
Report Wrong Elevation
Raw Report
LFLB 190300Z AUTO 33003KT 9999 BKN054 OVC072 02/00 Q1029=

Extra information for LFLB:More info

Metar Taf Metar & Taf Last 4 Metars F.Rules Stats Wind Profile Meteogram Temp Stats Airport Information Weather charts Add Link Nearby VenuesMetar ALERT Operation Metar Decoded Social comments